sensor_id;sensor_type;location;lat;lon;timestamp;temperature;humidity
66522;SHT31;53349;53.538;8.584;2022-11-15T00:00:51;7.94;78.26
66522;SHT31;53349;53.538;8.584;2022-11-15T00:03:21;7.95;78.20
66522;SHT31;53349;53.538;8.584;2022-11-15T00:05:47;7.92;78.27
66522;SHT31;53349;53.538;8.584;2022-11-15T00:08:13;7.98;78.25
66522;SHT31;53349;53.538;8.584;2022-11-15T00:10:39;7.99;78.17
66522;SHT31;53349;53.538;8.584;2022-11-15T00:13:06;8.01;78.02
66522;SHT31;53349;53.538;8.584;2022-11-15T00:15:37;8.01;78.01
66522;SHT31;53349;53.538;8.584;2022-11-15T00:18:04;7.98;78.04
66522;SHT31;53349;53.538;8.584;2022-11-15T00:20:29;7.95;78.18
66522;SHT31;53349;53.538;8.584;2022-11-15T00:22:55;7.95;78.23
66522;SHT31;53349;53.538;8.584;2022-11-15T00:25:20;7.89;78.28
66522;SHT31;53349;53.538;8.584;2022-11-15T00:27:46;7.91;78.35
66522;SHT31;53349;53.538;8.584;2022-11-15T00:30:11;7.91;78.35
66522;SHT31;53349;53.538;8.584;2022-11-15T00:32:37;7.91;78.37
66522;SHT31;53349;53.538;8.584;2022-11-15T00:35:03;7.88;78.45
66522;SHT31;53349;53.538;8.584;2022-11-15T00:37:28;7.84;78.54
66522;SHT31;53349;53.538;8.584;2022-11-15T00:39:53;7.82;78.64
66522;SHT31;53349;53.538;8.584;2022-11-15T00:42:19;7.81;78.80
66522;SHT31;53349;53.538;8.584;2022-11-15T00:44:44;7.78;78.77
66522;SHT31;53349;53.538;8.584;2022-11-15T00:47:09;7.75;78.89
66522;SHT31;53349;53.538;8.584;2022-11-15T00:49:35;7.72;78.93
66522;SHT31;53349;53.538;8.584;2022-11-15T00:52:00;7.72;79.05
66522;SHT31;53349;53.538;8.584;2022-11-15T00:54:26;7.71;78.99
66522;SHT31;53349;53.538;8.584;2022-11-15T00:56:54;7.70;79.10
66522;SHT31;53349;53.538;8.584;2022-11-15T00:59:19;7.67;79.15
66522;SHT31;53349;53.538;8.584;2022-11-15T01:01:44;7.61;79.29
66522;SHT31;53349;53.538;8.584;2022-11-15T01:04:10;7.60;79.33
66522;SHT31;53349;53.538;8.584;2022-11-15T01:06:35;7.54;79.47
66522;SHT31;53349;53.538;8.584;2022-11-15T01:09:01;7.58;79.41
66522;SHT31;53349;53.538;8.584;2022-11-15T01:11:26;7.58;79.41
66522;SHT31;53349;53.538;8.584;2022-11-15T01:13:51;7.54;79.41
66522;SHT31;53349;53.538;8.584;2022-11-15T01:16:17;7.54;79.42
66522;SHT31;53349;53.538;8.584;2022-11-15T01:18:46;7.53;79.52
66522;SHT31;53349;53.538;8.584;2022-11-15T01:21:17;7.47;79.56
66522;SHT31;53349;53.538;8.584;2022-11-15T01:23:43;7.44;79.72
66522;SHT31;53349;53.538;8.584;2022-11-15T01:26:14;7.38;79.84
66522;SHT31;53349;53.538;8.584;2022-11-15T01:28:41;7.38;79.94
66522;SHT31;53349;53.538;8.584;2022-11-15T01:31:12;7.35;79.98
66522;SHT31;53349;53.538;8.584;2022-11-15T01:33:37;7.34;80.01
66522;SHT31;53349;53.538;8.584;2022-11-15T01:36:04;7.37;79.96
66522;SHT31;53349;53.538;8.584;2022-11-15T01:38:30;7.35;79.91
66522;SHT31;53349;53.538;8.584;2022-11-15T01:40:55;7.35;79.93
66522;SHT31;53349;53.538;8.584;2022-11-15T01:43:21;7.30;80.02
66522;SHT31;53349;53.538;8.584;2022-11-15T01:45:52;7.27;80.05
66522;SHT31;53349;53.538;8.584;2022-11-15T01:48:22;7.27;80.05
66522;SHT31;53349;53.538;8.584;2022-11-15T01:50:49;7.24;80.09
66522;SHT31;53349;53.538;8.584;2022-11-15T01:53:17;7.22;80.13
66522;SHT31;53349;53.538;8.584;2022-11-15T01:55:44;7.19;80.16
66522;SHT31;53349;53.538;8.584;2022-11-15T01:58:09;7.17;80.21
66522;SHT31;53349;53.538;8.584;2022-11-15T02:00:35;7.16;80.30
66522;SHT31;53349;53.538;8.584;2022-11-15T02:03:01;7.16;80.34
66522;SHT31;53349;53.538;8.584;2022-11-15T02:05:27;7.12;80.46
66522;SHT31;53349;53.538;8.584;2022-11-15T02:07:54;7.13;80.51
66522;SHT31;53349;53.538;8.584;2022-11-15T02:10:22;7.13;80.54
66522;SHT31;53349;53.538;8.584;2022-11-15T02:12:48;7.16;80.47
66522;SHT31;53349;53.538;8.584;2022-11-15T02:15:15;7.17;80.44
66522;SHT31;53349;53.538;8.584;2022-11-15T02:26:28;7.27;80.11
66522;SHT31;53349;53.538;8.584;2022-11-15T02:29:11;7.26;80.08
66522;SHT31;53349;53.538;8.584;2022-11-15T02:37:14;7.30;79.76
66522;SHT31;53349;53.538;8.584;2022-11-15T02:39:42;7.33;79.69
66522;SHT31;53349;53.538;8.584;2022-11-15T02:42:15;7.31;79.59
66522;SHT31;53349;53.538;8.584;2022-11-15T02:45:05;7.33;79.56
66522;SHT31;53349;53.538;8.584;2022-11-15T02:47:34;7.30;79.59
66522;SHT31;53349;53.538;8.584;2022-11-15T02:50:09;7.31;79.70
66522;SHT31;53349;53.538;8.584;2022-11-15T02:52:35;7.31;79.69
66522;SHT31;53349;53.538;8.584;2022-11-15T02:55:01;7.28;79.69
66522;SHT31;53349;53.538;8.584;2022-11-15T02:57:57;7.27;79.80
66522;SHT31;53349;53.538;8.584;2022-11-15T03:00:34;7.26;79.83
66522;SHT31;53349;53.538;8.584;2022-11-15T03:03:27;7.26;79.78
66522;SHT31;53349;53.538;8.584;2022-11-15T03:11:16;7.23;79.56
66522;SHT31;53349;53.538;8.584;2022-11-15T03:13:56;7.10;79.70
66522;SHT31;53349;53.538;8.584;2022-11-15T03:16:57;7.07;80.00
66522;SHT31;53349;53.538;8.584;2022-11-15T03:19:35;7.09;80.14
66522;SHT31;53349;53.538;8.584;2022-11-15T03:22:04;7.06;80.27
66522;SHT31;53349;53.538;8.584;2022-11-15T03:24:33;7.06;80.31
66522;SHT31;53349;53.538;8.584;2022-11-15T03:27:02;7.10;80.36
66522;SHT31;53349;53.538;8.584;2022-11-15T03:29:32;7.14;80.38
66522;SHT31;53349;53.538;8.584;2022-11-15T03:32:03;7.14;80.28
66522;SHT31;53349;53.538;8.584;2022-11-15T03:34:53;7.16;80.25
66522;SHT31;53349;53.538;8.584;2022-11-15T03:37:29;7.20;80.13
66522;SHT31;53349;53.538;8.584;2022-11-15T03:39:55;7.20;80.12
66522;SHT31;53349;53.538;8.584;2022-11-15T03:42:30;7.22;80.17
66522;SHT31;53349;53.538;8.584;2022-11-15T03:45:19;7.24;80.27
66522;SHT31;53349;53.538;8.584;2022-11-15T03:47:54;7.27;80.19
66522;SHT31;53349;53.538;8.584;2022-11-15T03:50:23;7.31;80.26
66522;SHT31;53349;53.538;8.584;2022-11-15T03:52:49;7.30;80.27
66522;SHT31;53349;53.538;8.584;2022-11-15T03:55:18;7.33;80.32
66522;SHT31;53349;53.538;8.584;2022-11-15T03:57:44;7.38;80.37
66522;SHT31;53349;53.538;8.584;2022-11-15T04:00:10;7.43;80.33
66522;SHT31;53349;53.538;8.584;2022-11-15T04:02:36;7.50;80.27
66522;SHT31;53349;53.538;8.584;2022-11-15T04:05:01;7.50;80.25
66522;SHT31;53349;53.538;8.584;2022-11-15T04:07:27;7.53;80.30
66522;SHT31;53349;53.538;8.584;2022-11-15T04:09:52;7.55;80.26
66522;SHT31;53349;53.538;8.584;2022-11-15T04:12:39;7.57;80.31
66522;SHT31;53349;53.538;8.584;2022-11-15T04:15:10;7.60;80.26
66522;SHT31;53349;53.538;8.584;2022-11-15T04:17:56;7.61;80.24
66522;SHT31;53349;53.538;8.584;2022-11-15T04:20:24;7.64;80.32
66522;SHT31;53349;53.538;8.584;2022-11-15T04:23:12;7.67;80.31
66522;SHT31;53349;53.538;8.584;2022-11-15T04:25:59;7.72;80.25
66522;SHT31;53349;53.538;8.584;2022-11-15T04:28:25;7.72;80.31
66522;SHT31;53349;53.538;8.584;2022-11-15T04:30:50;7.77;80.39
66522;SHT31;53349;53.538;8.584;2022-11-15T04:33:16;7.81;80.37
66522;SHT31;53349;53.538;8.584;2022-11-15T04:35:42;7.84;80.46
66522;SHT31;53349;53.538;8.584;2022-11-15T04:38:09;7.85;80.63
66522;SHT31;53349;53.538;8.584;2022-11-15T04:40:36;7.86;80.82
66522;SHT31;53349;53.538;8.584;2022-11-15T04:43:02;7.86;80.98
66522;SHT31;53349;53.538;8.584;2022-11-15T04:45:27;7.89;81.04
66522;SHT31;53349;53.538;8.584;2022-11-15T04:47:53;7.91;81.15
66522;SHT31;53349;53.538;8.584;2022-11-15T04:50:18;7.94;81.21
66522;SHT31;53349;53.538;8.584;2022-11-15T04:52:51;7.94;81.26
66522;SHT31;53349;53.538;8.584;2022-11-15T04:55:16;7.98;81.31
66522;SHT31;53349;53.538;8.584;2022-11-15T04:57:42;8.01;81.43
66522;SHT31;53349;53.538;8.584;2022-11-15T05:00:10;8.05;81.47
66522;SHT31;53349;53.538;8.584;2022-11-15T05:02:35;8.06;81.68
66522;SHT31;53349;53.538;8.584;2022-11-15T05:05:19;8.06;81.80
66522;SHT31;53349;53.538;8.584;2022-11-15T05:07:45;8.09;82.01
66522;SHT31;53349;53.538;8.584;2022-11-15T05:10:10;8.09;82.20
66522;SHT31;53349;53.538;8.584;2022-11-15T05:12:36;8.10;82.26
66522;SHT31;53349;53.538;8.584;2022-11-15T05:15:02;8.12;82.36
66522;SHT31;53349;53.538;8.584;2022-11-15T05:17:27;8.17;82.48
66522;SHT31;53349;53.538;8.584;2022-11-15T05:19:53;8.19;82.66
66522;SHT31;53349;53.538;8.584;2022-11-15T05:22:19;8.23;82.79
66522;SHT31;53349;53.538;8.584;2022-11-15T05:24:44;8.28;82.86
66522;SHT31;53349;53.538;8.584;2022-11-15T05:27:09;8.33;82.89
66522;SHT31;53349;53.538;8.584;2022-11-15T05:29:35;8.36;82.86
66522;SHT31;53349;53.538;8.584;2022-11-15T05:32:00;8.37;82.97
66522;SHT31;53349;53.538;8.584;2022-11-15T05:34:26;8.43;82.85
66522;SHT31;53349;53.538;8.584;2022-11-15T05:36:52;8.47;82.81
66522;SHT31;53349;53.538;8.584;2022-11-15T05:39:17;8.54;82.68
66522;SHT31;53349;53.538;8.584;2022-11-15T05:41:48;8.53;82.66
66522;SHT31;53349;53.538;8.584;2022-11-15T05:44:18;8.61;82.69
66522;SHT31;53349;53.538;8.584;2022-11-15T05:46:44;8.61;82.53
66522;SHT31;53349;53.538;8.584;2022-11-15T05:49:13;8.65;82.35
66522;SHT31;53349;53.538;8.584;2022-11-15T05:51:42;8.68;82.25
66522;SHT31;53349;53.538;8.584;2022-11-15T05:54:10;8.73;82.14
66522;SHT31;53349;53.538;8.584;2022-11-15T05:56:37;8.75;82.02
66522;SHT31;53349;53.538;8.584;2022-11-15T05:59:03;8.77;81.98
66522;SHT31;53349;53.538;8.584;2022-11-15T06:01:29;8.80;81.95
66522;SHT31;53349;53.538;8.584;2022-11-15T06:03:55;8.83;81.82
66522;SHT31;53349;53.538;8.584;2022-11-15T06:06:20;8.88;81.65
66522;SHT31;53349;53.538;8.584;2022-11-15T06:08:45;8.92;81.50
66522;SHT31;53349;53.538;8.584;2022-11-15T06:11:13;8.92;81.59
66522;SHT31;53349;53.538;8.584;2022-11-15T06:13:39;8.94;81.66
66522;SHT31;53349;53.538;8.584;2022-11-15T06:16:05;8.97;81.63
66522;SHT31;53349;53.538;8.584;2022-11-15T06:18:36;8.98;81.64
66522;SHT31;53349;53.538;8.584;2022-11-15T06:21:03;9.05;81.66
66522;SHT31;53349;53.538;8.584;2022-11-15T06:23:31;9.10;81.61
66522;SHT31;53349;53.538;8.584;2022-11-15T06:25:58;9.11;81.59
66522;SHT31;53349;53.538;8.584;2022-11-15T06:28:24;9.16;81.61
66522;SHT31;53349;53.538;8.584;2022-11-15T06:30:50;9.16;81.56
66522;SHT31;53349;53.538;8.584;2022-11-15T06:33:15;9.15;81.59
66522;SHT31;53349;53.538;8.584;2022-11-15T06:35:40;9.22;81.64
66522;SHT31;53349;53.538;8.584;2022-11-15T06:38:09;9.24;81.62
66522;SHT31;53349;53.538;8.584;2022-11-15T06:40:36;9.26;81.59
66522;SHT31;53349;53.538;8.584;2022-11-15T06:43:03;9.29;81.59
66522;SHT31;53349;53.538;8.584;2022-11-15T06:45:29;9.31;81.55
66522;SHT31;53349;53.538;8.584;2022-11-15T06:47:55;9.32;81.48
66522;SHT31;53349;53.538;8.584;2022-11-15T06:50:20;9.34;81.51
66522;SHT31;53349;53.538;8.584;2022-11-15T06:52:45;9.34;81.46
66522;SHT31;53349;53.538;8.584;2022-11-15T06:55:11;9.36;81.49
66522;SHT31;53349;53.538;8.584;2022-11-15T06:57:36;9.39;81.42
66522;SHT31;53349;53.538;8.584;2022-11-15T07:00:05;9.40;81.49
66522;SHT31;53349;53.538;8.584;2022-11-15T07:02:31;9.45;81.50
66522;SHT31;53349;53.538;8.584;2022-11-15T07:04:56;9.47;81.43
66522;SHT31;53349;53.538;8.584;2022-11-15T07:07:21;9.50;81.49
66522;SHT31;53349;53.538;8.584;2022-11-15T07:09:47;9.49;81.47
66522;SHT31;53349;53.538;8.584;2022-11-15T07:12:12;9.47;81.59
66522;SHT31;53349;53.538;8.584;2022-11-15T07:14:38;9.53;81.57
66522;SHT31;53349;53.538;8.584;2022-11-15T07:17:04;9.60;81.41
66522;SHT31;53349;53.538;8.584;2022-11-15T07:19:30;9.63;81.35
66522;SHT31;53349;53.538;8.584;2022-11-15T07:21:55;9.67;81.29
66522;SHT31;53349;53.538;8.584;2022-11-15T07:24:21;9.65;81.34
66522;SHT31;53349;53.538;8.584;2022-11-15T07:26:46;9.69;81.47
66522;SHT31;53349;53.538;8.584;2022-11-15T07:29:11;9.72;81.60
66522;SHT31;53349;53.538;8.584;2022-11-15T07:31:37;9.76;81.51
66522;SHT31;53349;53.538;8.584;2022-11-15T07:34:03;9.73;81.54
66522;SHT31;53349;53.538;8.584;2022-11-15T07:36:28;9.79;81.54
66522;SHT31;53349;53.538;8.584;2022-11-15T07:38:53;9.84;81.54
66522;SHT31;53349;53.538;8.584;2022-11-15T07:41:19;9.86;81.72
66522;SHT31;53349;53.538;8.584;2022-11-15T07:43:44;9.82;81.70
66522;SHT31;53349;53.538;8.584;2022-11-15T07:46:09;9.84;81.82
66522;SHT31;53349;53.538;8.584;2022-11-15T07:48:36;9.90;81.88
66522;SHT31;53349;53.538;8.584;2022-11-15T07:51:02;9.96;81.77
66522;SHT31;53349;53.538;8.584;2022-11-15T07:53:28;9.98;81.63
66522;SHT31;53349;53.538;8.584;2022-11-15T07:55:53;9.97;81.64
66522;SHT31;53349;53.538;8.584;2022-11-15T07:58:19;10.06;81.36
66522;SHT31;53349;53.538;8.584;2022-11-15T08:00:44;10.20;82.45
66522;SHT31;53349;53.538;8.584;2022-11-15T08:03:12;10.28;82.24
66522;SHT31;53349;53.538;8.584;2022-11-15T08:05:39;10.38;81.97
66522;SHT31;53349;53.538;8.584;2022-11-15T08:08:05;10.37;81.94
66522;SHT31;53349;53.538;8.584;2022-11-15T08:10:31;10.38;81.49
66522;SHT31;53349;53.538;8.584;2022-11-15T08:13:10;10.35;80.86
66522;SHT31;53349;53.538;8.584;2022-11-15T08:15:36;10.31;80.79
66522;SHT31;53349;53.538;8.584;2022-11-15T08:18:08;10.28;80.74
66522;SHT31;53349;53.538;8.584;2022-11-15T08:20:34;10.25;80.79
66522;SHT31;53349;53.538;8.584;2022-11-15T08:23:02;10.24;80.78
66522;SHT31;53349;53.538;8.584;2022-11-15T08:25:30;10.25;80.81
66522;SHT31;53349;53.538;8.584;2022-11-15T08:27:59;10.24;80.84
66522;SHT31;53349;53.538;8.584;2022-11-15T08:30:25;10.24;80.91
66522;SHT31;53349;53.538;8.584;2022-11-15T08:32:52;10.25;80.97
66522;SHT31;53349;53.538;8.584;2022-11-15T08:35:19;10.28;81.01
66522;SHT31;53349;53.538;8.584;2022-11-15T08:37:44;10.31;81.02
66522;SHT31;53349;53.538;8.584;2022-11-15T08:40:10;10.34;81.02
66522;SHT31;53349;53.538;8.584;2022-11-15T08:42:36;10.37;81.00
66522;SHT31;53349;53.538;8.584;2022-11-15T08:45:02;10.40;81.00
66522;SHT31;53349;53.538;8.584;2022-11-15T08:47:27;10.44;80.96
66522;SHT31;53349;53.538;8.584;2022-11-15T08:49:54;10.46;80.83
66522;SHT31;53349;53.538;8.584;2022-11-15T08:52:21;10.51;80.84
66522;SHT31;53349;53.538;8.584;2022-11-15T08:54:46;10.54;80.76
66522;SHT31;53349;53.538;8.584;2022-11-15T08:57:12;10.61;80.62
66522;SHT31;53349;53.538;8.584;2022-11-15T08:59:37;10.65;80.52
66522;SHT31;53349;53.538;8.584;2022-11-15T09:02:03;10.66;80.53
66522;SHT31;53349;53.538;8.584;2022-11-15T09:04:28;10.69;80.60
66522;SHT31;53349;53.538;8.584;2022-11-15T09:06:55;10.72;80.57
66522;SHT31;53349;53.538;8.584;2022-11-15T09:09:21;10.77;80.51
66522;SHT31;53349;53.538;8.584;2022-11-15T09:11:46;10.79;80.47
66522;SHT31;53349;53.538;8.584;2022-11-15T09:14:12;10.82;80.50
66522;SHT31;53349;53.538;8.584;2022-11-15T09:16:41;10.83;80.48
66522;SHT31;53349;53.538;8.584;2022-11-15T09:19:06;10.92;80.49
66522;SHT31;53349;53.538;8.584;2022-11-15T09:21:32;11.00;80.21
66522;SHT31;53349;53.538;8.584;2022-11-15T09:23:58;11.00;80.21
66522;SHT31;53349;53.538;8.584;2022-11-15T09:26:23;11.06;80.11
66522;SHT31;53349;53.538;8.584;2022-11-15T09:28:58;11.07;80.10
66522;SHT31;53349;53.538;8.584;2022-11-15T09:31:27;11.10;80.16
66522;SHT31;53349;53.538;8.584;2022-11-15T09:33:52;11.12;80.07
66522;SHT31;53349;53.538;8.584;2022-11-15T09:36:18;11.13;80.13
66522;SHT31;53349;53.538;8.584;2022-11-15T09:38:46;11.20;80.05
66522;SHT31;53349;53.538;8.584;2022-11-15T09:41:22;11.19;80.05
66522;SHT31;53349;53.538;8.584;2022-11-15T09:49:52;11.27;79.95
66522;SHT31;53349;53.538;8.584;2022-11-15T09:52:19;11.33;79.96
66522;SHT31;53349;53.538;8.584;2022-11-15T09:54:48;11.37;79.81
66522;SHT31;53349;53.538;8.584;2022-11-15T09:57:29;11.43;79.65
66522;SHT31;53349;53.538;8.584;2022-11-15T10:01:02;11.46;79.63
66522;SHT31;53349;53.538;8.584;2022-11-15T10:03:29;11.47;79.64
66522;SHT31;53349;53.538;8.584;2022-11-15T10:06:00;11.46;79.74
66522;SHT31;53349;53.538;8.584;2022-11-15T10:08:58;11.46;79.85
66522;SHT31;53349;53.538;8.584;2022-11-15T10:11:30;11.46;79.82
66522;SHT31;53349;53.538;8.584;2022-11-15T10:14:01;11.48;79.89
66522;SHT31;53349;53.538;8.584;2022-11-15T10:19:23;11.54;79.75
66522;SHT31;53349;53.538;8.584;2022-11-15T10:24:34;11.60;79.63
66522;SHT31;53349;53.538;8.584;2022-11-15T10:27:00;11.68;79.54
66522;SHT31;53349;53.538;8.584;2022-11-15T10:29:26;11.71;79.30
66522;SHT31;53349;53.538;8.584;2022-11-15T10:31:51;11.77;79.18
66522;SHT31;53349;53.538;8.584;2022-11-15T10:34:23;11.87;79.04
66522;SHT31;53349;53.538;8.584;2022-11-15T10:36:57;12.02;78.61
66522;SHT31;53349;53.538;8.584;2022-11-15T10:39:23;12.19;78.05
66522;SHT31;53349;53.538;8.584;2022-11-15T10:41:48;12.26;77.63
66522;SHT31;53349;53.538;8.584;2022-11-15T10:46:46;12.45;77.21
66522;SHT31;53349;53.538;8.584;2022-11-15T10:51:56;12.67;76.20
66522;SHT31;53349;53.538;8.584;2022-11-15T10:54:25;12.77;76.01
66522;SHT31;53349;53.538;8.584;2022-11-15T10:56:54;12.80;75.88
66522;SHT31;53349;53.538;8.584;2022-11-15T10:59:29;12.90;75.50
66522;SHT31;53349;53.538;8.584;2022-11-15T11:01:56;12.97;75.26
66522;SHT31;53349;53.538;8.584;2022-11-15T11:04:22;12.97;75.27
66522;SHT31;53349;53.538;8.584;2022-11-15T11:09:32;12.94;75.36
66522;SHT31;53349;53.538;8.584;2022-11-15T11:11:58;12.94;75.51
66522;SHT31;53349;53.538;8.584;2022-11-15T11:14:36;12.91;75.69
66522;SHT31;53349;53.538;8.584;2022-11-15T11:17:32;12.87;75.88
66522;SHT31;53349;53.538;8.584;2022-11-15T11:34:14;13.03;75.66
66522;SHT31;53349;53.538;8.584;2022-11-15T11:36:55;13.01;75.71
66522;SHT31;53349;53.538;8.584;2022-11-15T11:51:18;13.19;75.02
66522;SHT31;53349;53.538;8.584;2022-11-15T11:54:17;13.29;74.86
66522;SHT31;53349;53.538;8.584;2022-11-15T11:56:45;13.38;74.45
66522;SHT31;53349;53.538;8.584;2022-11-15T11:59:25;13.45;74.13
66522;SHT31;53349;53.538;8.584;2022-11-15T12:01:54;13.49;74.04
66522;SHT31;53349;53.538;8.584;2022-11-15T12:04:34;13.48;74.15
66522;SHT31;53349;53.538;8.584;2022-11-15T12:07:23;13.49;74.09
66522;SHT31;53349;53.538;8.584;2022-11-15T12:09:55;13.52;74.06
66522;SHT31;53349;53.538;8.584;2022-11-15T12:13:00;13.51;73.74
66522;SHT31;53349;53.538;8.584;2022-11-15T12:15:32;13.52;73.80
66522;SHT31;53349;53.538;8.584;2022-11-15T12:18:01;13.54;73.66
66522;SHT31;53349;53.538;8.584;2022-11-15T12:20:30;13.55;73.63
66522;SHT31;53349;53.538;8.584;2022-11-15T12:23:16;13.48;73.90
66522;SHT31;53349;53.538;8.584;2022-11-15T12:25:51;13.45;74.16
66522;SHT31;53349;53.538;8.584;2022-11-15T12:28:28;13.38;74.23
66522;SHT31;53349;53.538;8.584;2022-11-15T12:33:46;13.35;74.37
66522;SHT31;53349;53.538;8.584;2022-11-15T12:39:05;13.28;74.56
66522;SHT31;53349;53.538;8.584;2022-11-15T12:42:39;13.24;74.72
66522;SHT31;53349;53.538;8.584;2022-11-15T12:47:04;13.39;74.23
66522;SHT31;53349;53.538;8.584;2022-11-15T12:49:47;13.39;74.16
66522;SHT31;53349;53.538;8.584;2022-11-15T12:52:13;13.42;74.14
66522;SHT31;53349;53.538;8.584;2022-11-15T12:59:54;13.48;74.00
66522;SHT31;53349;53.538;8.584;2022-11-15T13:02:25;13.45;74.06
66522;SHT31;53349;53.538;8.584;2022-11-15T13:04:54;13.46;74.07
66522;SHT31;53349;53.538;8.584;2022-11-15T13:10:01;13.52;73.90
66522;SHT31;53349;53.538;8.584;2022-11-15T13:17:54;13.54;73.72
66522;SHT31;53349;53.538;8.584;2022-11-15T13:20:28;13.52;73.83
66522;SHT31;53349;53.538;8.584;2022-11-15T13:23:02;13.56;73.70
66522;SHT31;53349;53.538;8.584;2022-11-15T13:33:49;13.65;73.15
66522;SHT31;53349;53.538;8.584;2022-11-15T13:36:27;13.69;73.17
66522;SHT31;53349;53.538;8.584;2022-11-15T13:39:00;13.76;72.68
66522;SHT31;53349;53.538;8.584;2022-11-15T13:41:29;13.75;72.36
66522;SHT31;53349;53.538;8.584;2022-11-15T13:43:56;13.75;72.42
66522;SHT31;53349;53.538;8.584;2022-11-15T13:46:26;13.72;72.48
66522;SHT31;53349;53.538;8.584;2022-11-15T13:48:55;13.73;72.35
66522;SHT31;53349;53.538;8.584;2022-11-15T13:54:23;13.79;72.27
66522;SHT31;53349;53.538;8.584;2022-11-15T13:56:53;13.77;72.14
66522;SHT31;53349;53.538;8.584;2022-11-15T14:01:49;13.75;72.15
66522;SHT31;53349;53.538;8.584;2022-11-15T14:04:19;13.69;72.25
66522;SHT31;53349;53.538;8.584;2022-11-15T14:06:47;13.67;72.25
66522;SHT31;53349;53.538;8.584;2022-11-15T14:11:50;13.61;72.55
66522;SHT31;53349;53.538;8.584;2022-11-15T14:14:16;13.59;72.69
66522;SHT31;53349;53.538;8.584;2022-11-15T14:16:43;13.55;72.84
66522;SHT31;53349;53.538;8.584;2022-11-15T14:19:32;13.55;72.93
66522;SHT31;53349;53.538;8.584;2022-11-15T14:24:43;13.44;73.22
66522;SHT31;53349;53.538;8.584;2022-11-15T14:27:19;13.41;73.31
66522;SHT31;53349;53.538;8.584;2022-11-15T14:29:46;13.42;73.30
66522;SHT31;53349;53.538;8.584;2022-11-15T14:32:23;13.39;73.46
66522;SHT31;53349;53.538;8.584;2022-11-15T14:35:16;13.38;73.71
66522;SHT31;53349;53.538;8.584;2022-11-15T14:37:42;13.38;74.05
66522;SHT31;53349;53.538;8.584;2022-11-15T14:40:11;13.39;74.22
66522;SHT31;53349;53.538;8.584;2022-11-15T14:42:37;13.34;74.39
66522;SHT31;53349;53.538;8.584;2022-11-15T14:45:02;13.32;74.55
66522;SHT31;53349;53.538;8.584;2022-11-15T14:47:28;13.25;74.74
66522;SHT31;53349;53.538;8.584;2022-11-15T14:49:53;13.22;74.85
66522;SHT31;53349;53.538;8.584;2022-11-15T14:52:30;13.21;75.01
66522;SHT31;53349;53.538;8.584;2022-11-15T14:54:59;13.15;75.05
66522;SHT31;53349;53.538;8.584;2022-11-15T14:57:24;13.11;75.16
66522;SHT31;53349;53.538;8.584;2022-11-15T14:59:50;13.11;75.19
66522;SHT31;53349;53.538;8.584;2022-11-15T15:02:24;13.03;75.44
66522;SHT31;53349;53.538;8.584;2022-11-15T15:04:50;13.00;75.60
66522;SHT31;53349;53.538;8.584;2022-11-15T15:07:16;12.97;75.65
66522;SHT31;53349;53.538;8.584;2022-11-15T15:09:43;12.94;75.74
66522;SHT31;53349;53.538;8.584;2022-11-15T15:12:21;12.93;75.79
66522;SHT31;53349;53.538;8.584;2022-11-15T15:14:49;12.88;75.94
66522;SHT31;53349;53.538;8.584;2022-11-15T15:17:16;12.88;75.91
66522;SHT31;53349;53.538;8.584;2022-11-15T15:19:43;12.81;76.03
66522;SHT31;53349;53.538;8.584;2022-11-15T15:22:14;12.80;76.06
66522;SHT31;53349;53.538;8.584;2022-11-15T15:24:40;12.77;75.97
66522;SHT31;53349;53.538;8.584;2022-11-15T15:27:06;12.77;75.97
66522;SHT31;53349;53.538;8.584;2022-11-15T15:29:31;12.74;75.86
66522;SHT31;53349;53.538;8.584;2022-11-15T15:31:57;12.73;75.95
66522;SHT31;53349;53.538;8.584;2022-11-15T15:34:22;12.70;75.98
66522;SHT31;53349;53.538;8.584;2022-11-15T15:36:47;12.67;76.01
66522;SHT31;53349;53.538;8.584;2022-11-15T15:39:13;12.60;76.13
66522;SHT31;53349;53.538;8.584;2022-11-15T15:41:38;12.56;76.29
66522;SHT31;53349;53.538;8.584;2022-11-15T15:44:03;12.53;76.39
66522;SHT31;53349;53.538;8.584;2022-11-15T15:46:29;12.47;76.53
66522;SHT31;53349;53.538;8.584;2022-11-15T15:48:54;12.45;76.68
66522;SHT31;53349;53.538;8.584;2022-11-15T15:51:19;12.40;76.79
66522;SHT31;53349;53.538;8.584;2022-11-15T15:53:45;12.36;76.90
66522;SHT31;53349;53.538;8.584;2022-11-15T15:56:11;12.35;76.94
66522;SHT31;53349;53.538;8.584;2022-11-15T15:58:36;12.33;76.97
66522;SHT31;53349;53.538;8.584;2022-11-15T16:01:02;12.32;76.98
66522;SHT31;53349;53.538;8.584;2022-11-15T16:03:27;12.30;77.00
66522;SHT31;53349;53.538;8.584;2022-11-15T16:05:53;12.26;77.06
66522;SHT31;53349;53.538;8.584;2022-11-15T16:08:23;12.25;77.10
66522;SHT31;53349;53.538;8.584;2022-11-15T16:10:49;12.25;77.09
66522;SHT31;53349;53.538;8.584;2022-11-15T16:13:15;12.21;77.22
66522;SHT31;53349;53.538;8.584;2022-11-15T16:15:41;12.18;77.22
66522;SHT31;53349;53.538;8.584;2022-11-15T16:18:11;12.16;77.27
66522;SHT31;53349;53.538;8.584;2022-11-15T16:20:39;12.14;77.32
66522;SHT31;53349;53.538;8.584;2022-11-15T16:23:07;12.08;77.36
66522;SHT31;53349;53.538;8.584;2022-11-15T16:25:40;12.06;77.36
66522;SHT31;53349;53.538;8.584;2022-11-15T16:30:44;12.02;77.38
66522;SHT31;53349;53.538;8.584;2022-11-15T16:33:09;11.96;77.39
66522;SHT31;53349;53.538;8.584;2022-11-15T16:35:39;11.95;77.43
66522;SHT31;53349;53.538;8.584;2022-11-15T16:38:04;11.94;77.34
66522;SHT31;53349;53.538;8.584;2022-11-15T16:40:32;11.92;77.35
66522;SHT31;53349;53.538;8.584;2022-11-15T16:42:58;11.88;77.34
66522;SHT31;53349;53.538;8.584;2022-11-15T16:45:27;11.84;77.32
66522;SHT31;53349;53.538;8.584;2022-11-15T16:47:56;11.82;77.22
66522;SHT31;53349;53.538;8.584;2022-11-15T16:50:27;11.81;77.16
66522;SHT31;53349;53.538;8.584;2022-11-15T16:52:58;11.81;76.96
66522;SHT31;53349;53.538;8.584;2022-11-15T16:55:25;11.77;76.92
66522;SHT31;53349;53.538;8.584;2022-11-15T16:57:53;11.75;76.83
66522;SHT31;53349;53.538;8.584;2022-11-15T17:00:19;11.74;76.83
66522;SHT31;53349;53.538;8.584;2022-11-15T17:02:46;11.71;76.79
66522;SHT31;53349;53.538;8.584;2022-11-15T17:05:12;11.73;76.78
66522;SHT31;53349;53.538;8.584;2022-11-15T17:07:39;11.70;76.67
66522;SHT31;53349;53.538;8.584;2022-11-15T17:10:06;11.73;76.49
66522;SHT31;53349;53.538;8.584;2022-11-15T17:12:34;11.73;76.40
66522;SHT31;53349;53.538;8.584;2022-11-15T17:14:59;11.68;76.40
66522;SHT31;53349;53.538;8.584;2022-11-15T17:17:25;11.71;76.22
66522;SHT31;53349;53.538;8.584;2022-11-15T17:19:51;11.73;75.99
66522;SHT31;53349;53.538;8.584;2022-11-15T17:22:17;11.73;75.91
66522;SHT31;53349;53.538;8.584;2022-11-15T17:24:43;11.70;75.75
66522;SHT31;53349;53.538;8.584;2022-11-15T17:27:09;11.75;75.64
66522;SHT31;53349;53.538;8.584;2022-11-15T17:29:35;11.75;75.59
66522;SHT31;53349;53.538;8.584;2022-11-15T17:32:00;11.74;75.61
66522;SHT31;53349;53.538;8.584;2022-11-15T17:34:25;11.74;75.63
66522;SHT31;53349;53.538;8.584;2022-11-15T17:36:51;11.71;75.66